Time;durP1;ratioP1;P1;durP2;ratioP2;P2;SDS_P1;SDS_P2;PMS_P1;PMS_P2;Temp;Humidity;BMP_temperature;BMP_pressure;BME280_temperature;BME280_humidity;BME280_pressure;Samples;Min_cycle;Max_cycle;Signal;HPM_P1;HPM_P2
2022/07/11 00:01:17;;;;;;;2.90;1.53;;;;;;;;;;4914937;28;20240;-87
2022/07/11 00:03:43;;;;;;;5.37;1.87;;;;;;;;;;4913586;28;20235;-87
2022/07/11 00:06:58;;;;;;;2.37;1.77;;;;;;;;;;4903178;28;20223;-88
2022/07/11 00:09:23;;;;;;;3.30;1.63;;;;;;;;;;4939683;28;20588;-85
2022/07/11 00:11:49;;;;;;;2.37;1.70;;;;;;;;;;4936744;28;20239;-88
2022/07/11 00:14:15;;;;;;;2.70;1.70;;;;;;;;;;4903094;28;20239;-87
2022/07/11 00:16:41;;;;;;;2.40;1.80;;;;;;;;;;4963676;28;20255;-87
2022/07/11 00:19:06;;;;;;;3.27;1.87;;;;;;;;;;4883521;28;20227;-86
2022/07/11 00:21:35;;;;;;;2.83;1.90;;;;;;;;;;4910435;28;20232;-87
2022/07/11 00:24:04;;;;;;;2.67;2.13;;;;;;;;;;4897185;28;20224;-87
2022/07/11 00:26:30;;;;;;;1.97;1.80;;;;;;;;;;4892732;28;20277;-88
2022/07/11 00:28:58;;;;;;;2.43;1.70;;;;;;;;;;4912630;28;20228;-87
2022/07/11 00:31:23;;;;;;;3.30;2.03;;;;;;;;;;4931257;28;20221;-87
2022/07/11 00:33:51;;;;;;;4.00;2.07;;;;;;;;;;4976148;28;20246;-87
2022/07/11 00:36:17;;;;;;;4.95;2.17;;;;;;;;;;4929476;28;20250;-88
2022/07/11 00:38:42;;;;;;;2.65;2.03;;;;;;;;;;4944029;28;20320;-89
2022/07/11 00:41:10;;;;;;;3.27;1.90;;;;;;;;;;5011315;28;20228;-87
2022/07/11 00:43:39;;;;;;;4.55;2.10;;;;;;;;;;4960965;28;20318;-88
2022/07/11 00:46:08;;;;;;;3.75;2.42;;;;;;;;;;4914441;28;20289;-88
2022/07/11 00:48:35;;;;;;;4.22;2.30;;;;;;;;;;4883449;28;20274;-88
2022/07/11 00:51:02;;;;;;;4.33;2.30;;;;;;;;;;4915814;28;20700;-87
2022/07/11 00:53:29;;;;;;;2.50;2.03;;;;;;;;;;4885071;28;20371;-87
2022/07/11 00:55:57;;;;;;;2.90;2.50;;;;;;;;;;4899969;28;20235;-87
2022/07/11 00:58:25;;;;;;;4.17;2.73;;;;;;;;;;4911595;28;20235;-87
2022/07/11 01:00:51;;;;;;;3.28;2.40;;;;;;;;;;4915890;28;20223;-87
2022/07/11 01:03:20;;;;;;;4.53;2.70;;;;;;;;;;4907717;28;20224;-87
2022/07/11 01:05:46;;;;;;;5.03;2.47;;;;;;;;;;4895084;28;20239;-87
2022/07/11 01:08:11;;;;;;;3.90;2.25;;;;;;;;;;4898247;28;20219;-87
2022/07/11 01:10:39;;;;;;;4.73;2.63;;;;;;;;;;4885733;28;20294;-87
2022/07/11 01:13:07;;;;;;;4.13;2.90;;;;;;;;;;4891103;28;20607;-86
2022/07/11 01:15:35;;;;;;;9.10;3.20;;;;;;;;;;4882591;28;20225;-87
2022/07/11 01:18:01;;;;;;;5.72;3.30;;;;;;;;;;4915805;28;20307;-86
2022/07/11 01:20:29;;;;;;;4.78;3.05;;;;;;;;;;4913586;28;20240;-87
2022/07/11 01:23:02;;;;;;;4.63;3.00;;;;;;;;;;4901382;28;20231;-86
2022/07/11 01:25:30;;;;;;;4.22;3.22;;;;;;;;;;4917918;28;20643;-87
2022/07/11 01:28:02;;;;;;;3.70;2.65;;;;;;;;;;4901561;28;20231;-88
2022/07/11 01:30:31;;;;;;;6.50;3.38;;;;;;;;;;4895158;28;20311;-87
2022/07/11 01:32:59;;;;;;;3.90;2.97;;;;;;;;;;4944957;28;20224;-87
2022/07/11 01:35:28;;;;;;;5.57;3.33;;;;;;;;;;4915867;28;20238;-86
2022/07/11 01:37:54;;;;;;;6.85;3.15;;;;;;;;;;4924805;28;20612;-86
2022/07/11 01:40:24;;;;;;;7.28;3.17;;;;;;;;;;4900941;28;20220;-86
2022/07/11 01:42:50;;;;;;;3.97;3.13;;;;;;;;;;4923398;28;20606;-86
2022/07/11 01:45:17;;;;;;;4.95;3.33;;;;;;;;;;4922430;28;20236;-86
2022/07/11 01:47:47;;;;;;;4.50;3.33;;;;;;;;;;4919123;28;20228;-87
2022/07/11 01:50:16;;;;;;;3.90;3.50;;;;;;;;;;4902777;28;20243;-87
2022/07/11 01:52:44;;;;;;;4.15;3.70;;;;;;;;;;4920185;28;20275;-85
2022/07/11 01:55:14;;;;;;;5.85;3.80;;;;;;;;;;4905823;28;20220;-85
2022/07/11 01:57:40;;;;;;;4.22;3.70;;;;;;;;;;4904137;28;20258;-86
2022/07/11 02:00:09;;;;;;;5.55;3.55;;;;;;;;;;4912036;28;20244;-85
2022/07/11 02:02:53;;;;;;;4.80;3.83;;;;;;;;;;4903769;28;20234;-86
2022/07/11 02:05:18;;;;;;;4.32;3.92;;;;;;;;;;4913994;28;20684;-85
2022/07/11 02:10:30;;;;;;;6.60;4.43;;;;;;;;;;4918150;28;20232;-85
2022/07/11 02:12:59;;;;;;;9.07;4.68;;;;;;;;;;4905153;28;20227;-86
2022/07/11 02:15:25;;;;;;;7.28;4.80;;;;;;;;;;4917393;28;20215;-85
2022/07/11 02:17:51;;;;;;;7.20;4.68;;;;;;;;;;4979035;28;20293;-88
2022/07/11 02:20:20;;;;;;;7.00;4.93;;;;;;;;;;4982764;28;20244;-86
2022/07/11 02:22:48;;;;;;;6.43;4.45;;;;;;;;;;4902500;28;20359;-86
2022/07/11 02:25:16;;;;;;;9.75;4.53;;;;;;;;;;4903219;28;20223;-85
2022/07/11 02:27:42;;;;;;;7.28;5.10;;;;;;;;;;4920981;28;20244;-87
2022/07/11 02:30:10;;;;;;;5.32;4.80;;;;;;;;;;4947768;28;20608;-87
2022/07/11 02:32:36;;;;;;;7.50;5.55;;;;;;;;;;4916464;28;20243;-87
2022/07/11 02:35:04;;;;;;;7.22;5.40;;;;;;;;;;4917243;28;20684;-85
2022/07/11 02:37:31;;;;;;;9.20;5.43;;;;;;;;;;4906001;28;20243;-84
2022/07/11 02:39:56;;;;;;;7.18;5.40;;;;;;;;;;4961016;28;20228;-86
2022/07/11 02:42:24;;;;;;;9.18;5.80;;;;;;;;;;4919711;28;20748;-86
2022/07/11 02:44:52;;;;;;;9.52;5.68;;;;;;;;;;4916290;28;20235;-87
2022/07/11 02:47:20;;;;;;;6.78;5.78;;;;;;;;;;4917990;28;20232;-84
2022/07/11 02:49:48;;;;;;;8.82;5.82;;;;;;;;;;4917429;28;20227;-86
2022/07/11 02:52:14;;;;;;;9.65;6.03;;;;;;;;;;4906235;28;20224;-87
2022/07/11 02:54:39;;;;;;;8.10;5.60;;;;;;;;;;4924948;28;20269;-86
2022/07/11 03:00:55;;;;;;;6.27;5.50;;;;;;;;;;4965412;23;20355;-73
2022/07/11 03:03:22;;;;;;;7.85;5.88;;;;;;;;;;4936236;28;20269;-72
2022/07/11 03:05:50;;;;;;;7.28;5.88;;;;;;;;;;5026450;28;20719;-72
2022/07/11 03:08:16;;;;;;;7.43;6.00;;;;;;;;;;4950439;28;20229;-72
2022/07/11 03:10:44;;;;;;;9.60;6.60;;;;;;;;;;4924709;28;20226;-72
2022/07/11 03:13:13;;;;;;;9.82;5.57;;;;;;;;;;4934340;28;20234;-73
2022/07/11 03:15:39;;;;;;;8.63;5.80;;;;;;;;;;4924791;28;20755;-72
2022/07/11 03:18:05;;;;;;;7.83;5.53;;;;;;;;;;4967736;28;20238;-72
2022/07/11 03:20:32;;;;;;;11.23;6.00;;;;;;;;;;4944777;28;20222;-72
2022/07/11 03:23:02;;;;;;;8.57;5.57;;;;;;;;;;4962319;28;20664;-71
2022/07/11 03:25:29;;;;;;;9.68;5.95;;;;;;;;;;4919351;28;20232;-72
2022/07/11 03:27:54;;;;;;;8.80;6.05;;;;;;;;;;4970877;28;20242;-72
2022/07/11 03:30:22;;;;;;;8.45;5.47;;;;;;;;;;4935265;28;20271;-72
2022/07/11 03:32:50;;;;;;;7.47;5.90;;;;;;;;;;4933611;28;20226;-72
2022/07/11 03:38:02;;;;;;;9.87;5.50;;;;;;;;;;4944724;28;20296;-72
2022/07/11 03:40:32;;;;;;;9.48;6.10;;;;;;;;;;4931215;28;20230;-72
2022/07/11 03:43:01;;;;;;;8.90;5.72;;;;;;;;;;4996258;28;20719;-72
2022/07/11 03:45:27;;;;;;;7.10;5.35;;;;;;;;;;4950282;28;20303;-72
2022/07/11 03:47:55;;;;;;;6.80;5.57;;;;;;;;;;4927121;28;20230;-72
2022/07/11 03:50:23;;;;;;;6.43;5.35;;;;;;;;;;4936682;28;20229;-72
2022/07/11 03:52:49;;;;;;;7.82;5.40;;;;;;;;;;4942729;28;20236;-72
2022/07/11 03:55:14;;;;;;;9.20;5.85;;;;;;;;;;4998736;28;20868;-72
2022/07/11 03:57:40;;;;;;;7.60;5.53;;;;;;;;;;4910347;28;20234;-72
2022/07/11 04:00:07;;;;;;;8.68;5.00;;;;;;;;;;4949325;28;20221;-73
2022/07/11 04:02:33;;;;;;;7.88;5.10;;;;;;;;;;4950001;28;20234;-73
2022/07/11 04:04:59;;;;;;;6.82;5.32;;;;;;;;;;4926224;28;20232;-72
2022/07/11 04:07:25;;;;;;;5.25;4.65;;;;;;;;;;4942898;28;20313;-72
2022/07/11 04:09:55;;;;;;;6.78;5.32;;;;;;;;;;4918214;28;20257;-73
2022/07/11 04:12:23;;;;;;;5.70;5.10;;;;;;;;;;4929407;28;20258;-73
2022/07/11 04:14:48;;;;;;;6.20;5.07;;;;;;;;;;4918257;28;20226;-73
2022/07/11 04:17:19;;;;;;;6.03;5.28;;;;;;;;;;4934213;28;20237;-73
2022/07/11 04:19:47;;;;;;;8.05;5.70;;;;;;;;;;4952011;28;20230;-72
2022/07/11 04:22:15;;;;;;;7.50;5.82;;;;;;;;;;4924201;28;20730;-76
2022/07/11 04:24:42;;;;;;;6.32;5.07;;;;;;;;;;4933109;28;20746;-73
2022/07/11 04:27:08;;;;;;;7.78;5.30;;;;;;;;;;4938457;28;20272;-72
2022/07/11 04:29:38;;;;;;;7.28;5.35;;;;;;;;;;4920060;28;20230;-72
2022/07/11 04:32:05;;;;;;;6.10;5.50;;;;;;;;;;4947138;28;20232;-72
2022/07/11 04:34:31;;;;;;;6.10;5.45;;;;;;;;;;4966888;28;20720;-74
2022/07/11 04:36:59;;;;;;;7.13;6.13;;;;;;;;;;4937766;28;20234;-73
2022/07/11 04:39:25;;;;;;;7.20;5.18;;;;;;;;;;4922797;28;20251;-72
2022/07/11 04:41:53;;;;;;;6.75;5.20;;;;;;;;;;4920994;28;20245;-72
2022/07/11 04:44:20;;;;;;;5.82;5.32;;;;;;;;;;4947427;28;20241;-74
2022/07/11 04:46:46;;;;;;;5.82;4.95;;;;;;;;;;4936052;28;20231;-73
2022/07/11 04:49:11;;;;;;;4.78;4.32;;;;;;;;;;4946544;28;20257;-72
2022/07/11 04:51:42;;;;;;;5.43;4.88;;;;;;;;;;4943042;28;20739;-72
2022/07/11 04:54:12;;;;;;;5.55;5.05;;;;;;;;;;4966619;28;20238;-72
2022/07/11 04:56:37;;;;;;;5.60;5.10;;;;;;;;;;4943283;28;20226;-72
2022/07/11 04:59:07;;;;;;;5.60;5.10;;;;;;;;;;4933670;28;20589;-73
2022/07/11 05:01:35;;;;;;;6.57;4.97;;;;;;;;;;4962155;28;20219;-72
2022/07/11 05:04:03;;;;;;;5.20;4.47;;;;;;;;;;4923546;28;20237;-73
2022/07/11 05:06:33;;;;;;;5.28;4.88;;;;;;;;;;4925958;28;20238;-73
2022/07/11 05:08:59;;;;;;;5.13;4.63;;;;;;;;;;4934199;28;20226;-71
2022/07/11 05:11:24;;;;;;;5.40;4.82;;;;;;;;;;4954009;28;20228;-72
2022/07/11 05:13:52;;;;;;;4.82;3.95;;;;;;;;;;4936579;28;20237;-72
2022/07/11 05:16:18;;;;;;;5.63;4.38;;;;;;;;;;4939451;28;20279;-73
2022/07/11 05:18:45;;;;;;;8.60;4.47;;;;;;;;;;4933430;28;20238;-73
2022/07/11 05:21:13;;;;;;;4.47;4.07;;;;;;;;;;4967030;28;20300;-72
2022/07/11 05:23:39;;;;;;;6.43;4.30;;;;;;;;;;4935400;28;20234;-74
2022/07/11 05:28:41;;;;;;;6.38;3.97;;;;;;;;;;5049223;28;20239;-85
2022/07/11 05:31:10;;;;;;;4.28;3.88;;;;;;;;;;5023826;28;20321;-85
2022/07/11 05:33:38;;;;;;;7.53;3.97;;;;;;;;;;5022782;28;20223;-86
2022/07/11 05:36:04;;;;;;;4.20;3.80;;;;;;;;;;5021559;28;20228;-88
2022/07/11 05:38:32;;;;;;;3.70;3.38;;;;;;;;;;5018296;28;20251;-87
2022/07/11 05:43:43;;;;;;;4.47;3.53;;;;;;;;;;5048322;28;20575;-73
2022/07/11 05:46:08;;;;;;;3.75;3.42;;;;;;;;;;5026626;28;20238;-73
2022/07/11 05:48:38;;;;;;;4.90;3.40;;;;;;;;;;5031769;28;20212;-73
2022/07/11 05:51:08;;;;;;;3.58;2.97;;;;;;;;;;5035025;28;20231;-74
2022/07/11 05:53:34;;;;;;;5.53;3.10;;;;;;;;;;5044282;23;20224;-87
2022/07/11 05:56:02;;;;;;;3.80;3.00;;;;;;;;;;5034929;28;20231;-88
2022/07/11 05:58:27;;;;;;;4.80;2.63;;;;;;;;;;5016068;28;20228;-86
2022/07/11 06:00:53;;;;;;;4.22;2.55;;;;;;;;;;5021483;28;20213;-88
2022/07/11 06:03:21;;;;;;;6.80;2.60;;;;;;;;;;5009296;28;20224;-87
2022/07/11 06:05:49;;;;;;;2.58;2.38;;;;;;;;;;5020189;28;20343;-86
2022/07/11 06:11:02;;;;;;;2.97;1.90;;;;;;;;;;5028755;28;20228;-86
2022/07/11 06:13:29;;;;;;;4.38;1.80;;;;;;;;;;5010909;28;20222;-85
2022/07/11 06:15:57;;;;;;;2.65;1.58;;;;;;;;;;4994810;28;20209;-88
2022/07/11 06:18:27;;;;;;;3.67;1.70;;;;;;;;;;5007131;28;20240;-85
2022/07/11 06:20:53;;;;;;;3.38;1.60;;;;;;;;;;4995503;28;20230;-85
2022/07/11 06:23:21;;;;;;;4.28;1.58;;;;;;;;;;5002648;28;20210;-85
2022/07/11 06:25:49;;;;;;;2.92;1.38;;;;;;;;;;5009295;28;20225;-87
2022/07/11 06:28:15;;;;;;;3.20;1.60;;;;;;;;;;4999263;28;20670;-86
2022/07/11 06:30:41;;;;;;;2.10;1.48;;;;;;;;;;4989632;28;20232;-87
2022/07/11 06:33:06;;;;;;;2.47;1.42;;;;;;;;;;4973478;28;20226;-87
2022/07/11 06:35:32;;;;;;;2.45;1.40;;;;;;;;;;4998733;28;20233;-85
2022/07/11 06:38:32;;;;;;;2.05;1.33;;;;;;;;;;4980408;28;20324;-87
2022/07/11 06:40:57;;;;;;;1.80;1.20;;;;;;;;;;5010917;28;20226;-86
2022/07/11 06:43:26;;;;;;;1.67;1.30;;;;;;;;;;4990571;28;20241;-87
2022/07/11 06:45:54;;;;;;;3.88;1.58;;;;;;;;;;4975944;28;20694;-86
2022/07/11 06:48:21;;;;;;;1.40;1.30;;;;;;;;;;4993010;28;20295;-88
2022/07/11 06:50:46;;;;;;;4.97;1.50;;;;;;;;;;4975190;28;20248;-87
2022/07/11 06:53:14;;;;;;;3.78;1.40;;;;;;;;;;5011019;28;20219;-86
2022/07/11 06:55:42;;;;;;;2.45;1.40;;;;;;;;;;4991315;28;20226;-85
2022/07/11 06:58:10;;;;;;;2.35;1.13;;;;;;;;;;4979912;28;20222;-87
2022/07/11 07:00:36;;;;;;;3.88;1.40;;;;;;;;;;4994895;28;20238;-86
2022/07/11 07:06:29;;;;;;;2.97;1.20;;;;;;;;;;5006113;28;20237;-87
2022/07/11 07:11:55;;;;;;;1.92;1.10;;;;;;;;;;4900068;29;20245;-72
2022/07/11 07:14:26;;;;;;;3.72;1.13;;;;;;;;;;4896622;29;21091;-73
2022/07/11 07:16:51;;;;;;;2.20;1.02;;;;;;;;;;4865555;29;20264;-74
2022/07/11 07:19:17;;;;;;;3.70;1.25;;;;;;;;;;4889591;28;20262;-72
2022/07/11 07:21:42;;;;;;;3.58;1.10;;;;;;;;;;4898713;29;20924;-72
2022/07/11 07:24:11;;;;;;;3.03;1.00;;;;;;;;;;4891565;29;20232;-71
2022/07/11 07:26:36;;;;;;;5.53;1.27;;;;;;;;;;4881243;29;20232;-71
2022/07/11 07:29:04;;;;;;;4.15;1.20;;;;;;;;;;4883352;29;20251;-71
2022/07/11 07:31:34;;;;;;;3.03;1.20;;;;;;;;;;4867909;29;20679;-74
2022/07/11 07:34:00;;;;;;;3.80;1.10;;;;;;;;;;4891429;29;20263;-72
2022/07/11 07:36:25;;;;;;;2.58;1.02;;;;;;;;;;4898361;29;20256;-73
2022/07/11 07:38:53;;;;;;;3.83;1.20;;;;;;;;;;4899349;29;20307;-74
2022/07/11 07:41:21;;;;;;;2.67;1.23;;;;;;;;;;4871936;29;20668;-73
2022/07/11 07:43:49;;;;;;;1.58;1.10;;;;;;;;;;4901374;29;20244;-72
2022/07/11 07:46:14;;;;;;;1.70;1.08;;;;;;;;;;4897291;29;20217;-73
2022/07/11 07:48:40;;;;;;;2.50;0.85;;;;;;;;;;4879519;29;20252;-73
2022/07/11 07:51:10;;;;;;;2.78;1.02;;;;;;;;;;4876254;29;20909;-73
2022/07/11 07:53:38;;;;;;;2.33;1.00;;;;;;;;;;4880396;29;20749;-72
2022/07/11 07:56:06;;;;;;;2.33;1.30;;;;;;;;;;4882033;28;20271;-73
2022/07/11 07:58:34;;;;;;;4.85;1.10;;;;;;;;;;4887501;29;20228;-72
2022/07/11 08:03:46;;;;;;;3.58;1.30;;;;;;;;;;4899396;28;20328;-71
2022/07/11 08:06:13;;;;;;;1.65;1.10;;;;;;;;;;4894618;28;20216;-72
2022/07/11 08:08:39;;;;;;;2.08;1.30;;;;;;;;;;4894497;29;20220;-72
2022/07/11 08:11:04;;;;;;;3.17;1.30;;;;;;;;;;4877778;29;20287;-72
2022/07/11 08:13:32;;;;;;;2.83;1.23;;;;;;;;;;4897150;29;20228;-72
2022/07/11 08:16:00;;;;;;;2.72;1.08;;;;;;;;;;4870466;29;20271;-72
2022/07/11 08:18:26;;;;;;;3.03;1.38;;;;;;;;;;4891267;29;20282;-71
2022/07/11 08:20:56;;;;;;;1.55;1.20;;;;;;;;;;4902004;29;20232;-72
2022/07/11 08:23:24;;;;;;;2.47;1.20;;;;;;;;;;4876914;29;20233;-73
2022/07/11 08:25:52;;;;;;;4.28;1.48;;;;;;;;;;4879773;29;21028;-72
2022/07/11 08:28:17;;;;;;;1.95;1.02;;;;;;;;;;4896534;29;20288;-72
2022/07/11 08:30:43;;;;;;;1.27;1.02;;;;;;;;;;4874203;29;20707;-71
2022/07/11 08:33:09;;;;;;;2.08;1.10;;;;;;;;;;4877769;29;20235;-71
2022/07/11 08:35:35;;;;;;;4.18;1.27;;;;;;;;;;4882063;29;20220;-72
2022/07/11 08:38:00;;;;;;;2.85;1.00;;;;;;;;;;4881693;29;20586;-70
2022/07/11 08:40:29;;;;;;;2.30;1.20;;;;;;;;;;4892769;28;20227;-71
2022/07/11 08:42:56;;;;;;;1.75;1.10;;;;;;;;;;4880804;29;20224;-72
2022/07/11 08:45:21;;;;;;;2.20;0.90;;;;;;;;;;4877349;29;20223;-71
2022/07/11 08:47:47;;;;;;;1.73;1.02;;;;;;;;;;4877796;29;20742;-72
2022/07/11 08:50:12;;;;;;;2.20;0.98;;;;;;;;;;4876426;29;20213;-71
2022/07/11 08:52:38;;;;;;;3.42;0.95;;;;;;;;;;4878008;29;20233;-71
2022/07/11 08:55:07;;;;;;;1.15;0.90;;;;;;;;;;4876556;28;20299;-73
2022/07/11 08:57:38;;;;;;;2.58;0.90;;;;;;;;;;4881950;29;20232;-71
2022/07/11 09:00:06;;;;;;;1.10;0.80;;;;;;;;;;4881331;28;20232;-73
2022/07/11 09:02:32;;;;;;;3.47;0.80;;;;;;;;;;4895120;29;20225;-72
2022/07/11 09:05:02;;;;;;;1.13;0.80;;;;;;;;;;4862714;29;20742;-72
2022/07/11 09:07:28;;;;;;;1.92;0.80;;;;;;;;;;4889395;29;20837;-73
2022/07/11 09:09:54;;;;;;;0.80;0.80;;;;;;;;;;4888600;29;20240;-72
2022/07/11 09:12:22;;;;;;;1.10;0.65;;;;;;;;;;4891523;29;20680;-72
2022/07/11 09:14:48;;;;;;;1.83;0.77;;;;;;;;;;4893672;29;20217;-73
2022/07/11 09:17:13;;;;;;;1.75;0.50;;;;;;;;;;4877584;28;20363;-71
2022/07/11 09:19:39;;;;;;;4.18;0.70;;;;;;;;;;4893231;29;20228;-72
2022/07/11 09:28:06;;;;;;;1.98;0.68;;;;;;;;;;4874895;29;20225;-71
2022/07/11 09:30:32;;;;;;;0.73;0.45;;;;;;;;;;4890059;29;20951;-72
2022/07/11 09:33:01;;;;;;;0.80;0.50;;;;;;;;;;4887503;29;20267;-71
2022/07/11 09:35:35;;;;;;;1.48;0.60;;;;;;;;;;4887672;29;20247;-73
2022/07/11 09:38:05;;;;;;;0.68;0.50;;;;;;;;;;4898070;29;20304;-71
2022/07/11 09:40:31;;;;;;;0.95;0.70;;;;;;;;;;4885831;29;20233;-72
2022/07/11 09:42:57;;;;;;;4.55;0.80;;;;;;;;;;4883392;29;20239;-72
2022/07/11 09:45:26;;;;;;;2.42;0.70;;;;;;;;;;4862636;29;20696;-71
2022/07/11 09:47:53;;;;;;;1.60;0.90;;;;;;;;;;4876817;29;20632;-73
2022/07/11 09:50:28;;;;;;;1.05;0.75;;;;;;;;;;4894186;29;20239;-73
2022/07/11 09:53:05;;;;;;;1.35;0.68;;;;;;;;;;4880824;29;20240;-72
2022/07/11 09:55:35;;;;;;;1.27;0.60;;;;;;;;;;4894244;29;20216;-71
2022/07/11 09:58:07;;;;;;;0.73;0.73;;;;;;;;;;4878948;29;20224;-72
2022/07/11 10:00:35;;;;;;;1.17;0.88;;;;;;;;;;4881534;29;20233;-72
2022/07/11 10:03:00;;;;;;;2.10;0.90;;;;;;;;;;4873860;29;20646;-72
2022/07/11 10:05:26;;;;;;;0.63;0.63;;;;;;;;;;4875749;29;20221;-71
2022/07/11 10:07:52;;;;;;;1.13;0.60;;;;;;;;;;4877914;29;20706;-73
2022/07/11 10:10:17;;;;;;;2.67;0.70;;;;;;;;;;4867021;29;20277;-72
2022/07/11 10:12:49;;;;;;;1.77;0.60;;;;;;;;;;4896288;29;20853;-73
2022/07/11 10:15:16;;;;;;;0.85;0.65;;;;;;;;;;4883055;28;20221;-73
2022/07/11 10:17:53;;;;;;;1.08;0.70;;;;;;;;;;4896403;29;20229;-72
2022/07/11 10:20:46;;;;;;;2.22;0.90;;;;;;;;;;4890633;29;20284;-72
2022/07/11 10:23:14;;;;;;;0.90;0.70;;;;;;;;;;4875899;29;20229;-72
2022/07/11 10:25:45;;;;;;;0.90;0.70;;;;;;;;;;4902154;29;20572;-73
2022/07/11 10:28:19;;;;;;;0.82;0.70;;;;;;;;;;4877665;29;20675;-73
2022/07/11 10:30:47;;;;;;;1.58;0.70;;;;;;;;;;4901138;29;20232;-71
2022/07/11 10:33:16;;;;;;;1.30;0.40;;;;;;;;;;4897856;28;20224;-71
2022/07/11 10:35:45;;;;;;;0.65;0.43;;;;;;;;;;4904575;29;20319;-71
2022/07/11 10:38:11;;;;;;;1.15;0.70;;;;;;;;;;4899589;28;20224;-72
2022/07/11 10:40:42;;;;;;;1.75;0.60;;;;;;;;;;4882800;29;20598;-71
2022/07/11 10:43:08;;;;;;;1.95;0.70;;;;;;;;;;4878748;29;20992;-72
2022/07/11 10:45:55;;;;;;;0.60;0.50;;;;;;;;;;4893738;29;20256;-74
2022/07/11 10:48:21;;;;;;;0.90;0.45;;;;;;;;;;4881682;29;20224;-73
2022/07/11 10:50:46;;;;;;;0.90;0.52;;;;;;;;;;4868376;29;20232;-74
2022/07/11 10:53:25;;;;;;;1.45;0.52;;;;;;;;;;4906996;28;20584;-72
2022/07/11 10:56:07;;;;;;;0.63;0.63;;;;;;;;;;4903784;29;20222;-71
2022/07/11 10:58:37;;;;;;;0.93;0.60;;;;;;;;;;4886282;29;20232;-72
2022/07/11 11:01:10;;;;;;;1.92;0.82;;;;;;;;;;4887118;28;20220;-71
2022/07/11 11:03:35;;;;;;;0.45;0.45;;;;;;;;;;4909205;29;20957;-71
2022/07/11 11:06:01;;;;;;;0.88;0.70;;;;;;;;;;4865538;29;20228;-71
2022/07/11 11:08:40;;;;;;;0.70;0.70;;;;;;;;;;4901434;28;20982;-70
2022/07/11 11:11:26;;;;;;;1.30;0.70;;;;;;;;;;4909638;29;20255;-71
2022/07/11 11:14:22;;;;;;;0.50;0.50;;;;;;;;;;4901070;29;20242;-72
2022/07/11 11:16:51;;;;;;;2.40;0.50;;;;;;;;;;4903871;29;20221;-73
2022/07/11 11:19:44;;;;;;;1.05;0.40;;;;;;;;;;4894556;29;20722;-72
2022/07/11 11:22:12;;;;;;;0.40;0.40;;;;;;;;;;4903509;28;20315;-73
2022/07/11 11:24:38;;;;;;;0.52;0.52;;;;;;;;;;4876194;29;20235;-72
2022/07/11 11:27:04;;;;;;;0.43;0.40;;;;;;;;;;4894197;29;20216;-72
2022/07/11 11:29:29;;;;;;;0.43;0.40;;;;;;;;;;4886452;29;20231;-71
2022/07/11 11:31:59;;;;;;;0.55;0.55;;;;;;;;;;4899854;29;20231;-71
2022/07/11 11:34:24;;;;;;;0.43;0.43;;;;;;;;;;4900303;29;20220;-72
2022/07/11 11:36:54;;;;;;;0.32;0.32;;;;;;;;;;4880866;29;20596;-73
2022/07/11 11:39:34;;;;;;;0.65;0.50;;;;;;;;;;4904881;28;20328;-73
2022/07/11 11:42:17;;;;;;;0.63;0.60;;;;;;;;;;4894677;29;20251;-72
2022/07/11 11:44:58;;;;;;;1.10;0.45;;;;;;;;;;4879290;29;20742;-75
2022/07/11 11:47:30;;;;;;;0.57;0.50;;;;;;;;;;4891593;29;20730;-75
2022/07/11 11:50:00;;;;;;;0.70;0.50;;;;;;;;;;4889188;29;20232;-75
2022/07/11 11:52:28;;;;;;;1.42;0.47;;;;;;;;;;4894425;28;20228;-73
2022/07/11 11:54:55;;;;;;;0.40;0.40;;;;;;;;;;4884153;29;20237;-74
2022/07/11 11:57:24;;;;;;;0.30;0.30;;;;;;;;;;4869381;29;20221;-74
2022/07/11 11:59:50;;;;;;;0.60;0.60;;;;;;;;;;4879291;29;20260;-73
2022/07/11 12:02:26;;;;;;;0.50;0.50;;;;;;;;;;4881348;28;20794;-73
2022/07/11 12:04:53;;;;;;;0.30;0.30;;;;;;;;;;4862333;29;20235;-71
2022/07/11 12:07:27;;;;;;;0.57;0.52;;;;;;;;;;4888146;29;20221;-70
2022/07/11 12:09:55;;;;;;;0.35;0.32;;;;;;;;;;4879053;29;20221;-71
2022/07/11 12:15:26;;;;;;;0.30;0.30;;;;;;;;;;4877696;29;20698;-72
2022/07/11 12:17:52;;;;;;;0.55;0.55;;;;;;;;;;4907358;29;20240;-72
2022/07/11 12:20:40;;;;;;;0.43;0.40;;;;;;;;;;4877137;28;20222;-73
2022/07/11 12:23:10;;;;;;;2.47;0.40;;;;;;;;;;4856619;29;20271;-72
2022/07/11 12:25:40;;;;;;;0.85;0.40;;;;;;;;;;4888728;29;20228;-73
2022/07/11 12:28:07;;;;;;;0.57;0.30;;;;;;;;;;4886910;28;20225;-74
2022/07/11 12:30:33;;;;;;;0.43;0.30;;;;;;;;;;4885791;29;20224;-73
2022/07/11 12:33:12;;;;;;;0.30;0.30;;;;;;;;;;4901363;29;20260;-73
2022/07/11 12:36:01;;;;;;;0.30;0.30;;;;;;;;;;4887268;29;20228;-72
2022/07/11 12:38:52;;;;;;;0.40;0.40;;;;;;;;;;4884541;29;20237;-74
2022/07/11 12:41:17;;;;;;;0.30;0.30;;;;;;;;;;4873921;29;20719;-71
2022/07/11 12:46:30;;;;;;;0.47;0.40;;;;;;;;;;4900060;29;20615;-74
2022/07/11 12:49:00;;;;;;;0.30;0.30;;;;;;;;;;4884825;29;20339;-73
2022/07/11 12:51:31;;;;;;;0.52;0.40;;;;;;;;;;4884451;29;20229;-73
2022/07/11 12:54:01;;;;;;;0.40;0.40;;;;;;;;;;4856999;29;20660;-72
2022/07/11 12:56:28;;;;;;;0.40;0.40;;;;;;;;;;4892793;29;20260;-73
2022/07/11 12:58:54;;;;;;;0.22;0.22;;;;;;;;;;4879993;29;20307;-72
2022/07/11 13:01:20;;;;;;;0.30;0.30;;;;;;;;;;4874016;29;20699;-72
2022/07/11 13:03:45;;;;;;;0.30;0.30;;;;;;;;;;4890272;29;20232;-74
2022/07/11 13:06:15;;;;;;;0.40;0.30;;;;;;;;;;4878864;29;20272;-72
2022/07/11 13:08:44;;;;;;;0.38;0.38;;;;;;;;;;4866936;29;20252;-73
2022/07/11 13:11:13;;;;;;;0.40;0.40;;;;;;;;;;4877815;29;20247;-71
2022/07/11 13:13:41;;;;;;;2.53;0.50;;;;;;;;;;4891062;29;20677;-74
2022/07/11 13:16:07;;;;;;;0.47;0.40;;;;;;;;;;4889422;29;20303;-73
2022/07/11 13:18:35;;;;;;;1.55;0.40;;;;;;;;;;4894522;29;20239;-74
2022/07/11 13:21:01;;;;;;;1.13;0.30;;;;;;;;;;4895286;29;20227;-73
2022/07/11 13:23:29;;;;;;;0.40;0.40;;;;;;;;;;4860804;29;20241;-72
2022/07/11 13:25:57;;;;;;;0.60;0.40;;;;;;;;;;4868972;29;20228;-73
2022/07/11 13:28:25;;;;;;;0.40;0.40;;;;;;;;;;4867380;29;20675;-74
2022/07/11 13:30:53;;;;;;;3.58;0.50;;;;;;;;;;4885774;29;20719;-73
2022/07/11 13:33:19;;;;;;;0.32;0.30;;;;;;;;;;4878808;29;20236;-74
2022/07/11 13:35:46;;;;;;;0.38;0.38;;;;;;;;;;4879451;29;20646;-73
2022/07/11 13:38:12;;;;;;;0.28;0.28;;;;;;;;;;4891708;29;20224;-74
2022/07/11 13:40:38;;;;;;;0.30;0.30;;;;;;;;;;4872724;29;20692;-73
2022/07/11 13:43:08;;;;;;;0.65;0.40;;;;;;;;;;4876596;28;20315;-72
2022/07/11 13:45:34;;;;;;;0.43;0.43;;;;;;;;;;4893020;29;20229;-72
2022/07/11 13:48:00;;;;;;;0.50;0.40;;;;;;;;;;4865506;29;20221;-72
2022/07/11 13:50:31;;;;;;;0.35;0.35;;;;;;;;;;4881926;29;20220;-72
2022/07/11 13:52:56;;;;;;;0.30;0.30;;;;;;;;;;4897040;29;20229;-74
2022/07/11 13:55:28;;;;;;;0.40;0.40;;;;;;;;;;4878885;29;20236;-74
2022/07/11 13:57:53;;;;;;;0.57;0.40;;;;;;;;;;4894207;29;20225;-74
2022/07/11 14:00:21;;;;;;;0.30;0.30;;;;;;;;;;4876276;29;20597;-73
2022/07/11 14:02:47;;;;;;;0.77;0.35;;;;;;;;;;4873584;29;20236;-74
2022/07/11 14:05:14;;;;;;;0.43;0.30;;;;;;;;;;4899982;29;20636;-74
2022/07/11 14:07:39;;;;;;;0.30;0.30;;;;;;;;;;4916237;29;20752;-70
2022/07/11 14:10:08;;;;;;;0.47;0.38;;;;;;;;;;4884950;29;20212;-73
2022/07/11 14:12:38;;;;;;;0.20;0.20;;;;;;;;;;4883833;29;20220;-77
2022/07/11 14:15:04;;;;;;;0.82;0.20;;;;;;;;;;4885829;29;20227;-73
2022/07/11 14:17:30;;;;;;;0.25;0.25;;;;;;;;;;4881302;29;20240;-73
2022/07/11 14:19:58;;;;;;;0.30;0.30;;;;;;;;;;4879989;29;20209;-72
2022/07/11 14:22:23;;;;;;;0.63;0.40;;;;;;;;;;4895680;29;20232;-74
2022/07/11 14:24:49;;;;;;;0.38;0.30;;;;;;;;;;4900307;29;20781;-72
2022/07/11 14:27:14;;;;;;;1.48;0.40;;;;;;;;;;4881409;29;20221;-74
2022/07/11 14:29:41;;;;;;;0.32;0.32;;;;;;;;;;4883165;29;20699;-73
2022/07/11 14:32:10;;;;;;;0.35;0.20;;;;;;;;;;4880399;29;20228;-74
2022/07/11 14:34:35;;;;;;;0.30;0.30;;;;;;;;;;4882437;29;20736;-74
2022/07/11 14:37:01;;;;;;;0.30;0.30;;;;;;;;;;4884714;29;20231;-74
2022/07/11 14:39:26;;;;;;;0.40;0.40;;;;;;;;;;4880266;29;20224;-72
2022/07/11 14:41:52;;;;;;;0.50;0.30;;;;;;;;;;4865665;29;20220;-73
2022/07/11 14:44:17;;;;;;;0.30;0.30;;;;;;;;;;4878248;28;20240;-74
2022/07/11 14:46:45;;;;;;;0.77;0.40;;;;;;;;;;4902407;29;20248;-73
2022/07/11 14:49:11;;;;;;;0.32;0.32;;;;;;;;;;4896637;29;20342;-75
2022/07/11 14:51:39;;;;;;;1.95;0.40;;;;;;;;;;4883788;29;20317;-73
2022/07/11 14:54:08;;;;;;;0.20;0.20;;;;;;;;;;4897678;29;20237;-75
2022/07/11 14:56:37;;;;;;;1.27;0.60;;;;;;;;;;4882307;29;20232;-73
2022/07/11 14:59:05;;;;;;;0.30;0.30;;;;;;;;;;4899029;29;20246;-75
2022/07/11 15:01:31;;;;;;;0.35;0.20;;;;;;;;;;4902373;29;20246;-74
2022/07/11 15:04:03;;;;;;;0.30;0.30;;;;;;;;;;4898323;29;20231;-72
2022/07/11 15:12:23;;;;;;;0.85;0.22;;;;;;;;;;4894252;28;20288;-76
2022/07/11 15:14:49;;;;;;;0.30;0.30;;;;;;;;;;4878419;29;20311;-73
2022/07/11 15:17:17;;;;;;;0.30;0.30;;;;;;;;;;4874689;29;20343;-74
2022/07/11 15:19:45;;;;;;;0.57;0.47;;;;;;;;;;4875512;29;20268;-74
2022/07/11 15:22:11;;;;;;;0.63;0.30;;;;;;;;;;4906733;29;20270;-74
2022/07/11 15:24:36;;;;;;;0.30;0.30;;;;;;;;;;4894688;29;20244;-72
2022/07/11 15:27:07;;;;;;;0.63;0.50;;;;;;;;;;4881004;29;20233;-74
2022/07/11 15:29:38;;;;;;;0.50;0.50;;;;;;;;;;4862183;29;20610;-74
2022/07/11 15:32:06;;;;;;;0.32;0.20;;;;;;;;;;4898663;29;20762;-74
2022/07/11 15:34:35;;;;;;;0.30;0.30;;;;;;;;;;4879929;29;20241;-74